createdAt,value
2018-10-18T04:29:24.383Z,159.80
2018-10-18T04:31:56.863Z,140.93
2018-10-18T04:34:29.283Z,136.33
2018-10-18T04:37:01.709Z,127.00
2018-10-18T04:39:34.130Z,134.63
2018-10-18T04:42:06.632Z,141.30
2018-10-18T04:44:39.043Z,145.87
2018-10-18T04:47:11.488Z,141.63
2018-10-18T04:49:43.894Z,151.33
2018-10-18T04:52:16.418Z,145.73
2018-10-18T04:54:48.838Z,148.03
2018-10-18T04:57:21.617Z,137.63
2018-10-18T04:59:54.067Z,148.87
2018-10-18T05:02:26.514Z,141.43
2018-10-18T05:05:40.420Z,143.47
2018-10-18T05:08:12.852Z,128.27
2018-10-18T05:10:45.273Z,133.33
2018-10-18T05:13:17.831Z,131.83
2018-10-18T05:15:50.174Z,123.90
2018-10-18T05:18:22.584Z,136.07
2018-10-18T05:20:55.179Z,120.23
2018-10-18T05:23:29.748Z,141.97
2018-10-18T05:26:02.185Z,114.23
2018-10-18T05:28:34.601Z,120.37
2018-10-18T05:31:07.078Z,118.53
2018-10-18T05:33:39.449Z,108.43
2018-10-18T05:36:11.873Z,117.97
2018-10-18T05:38:44.333Z,105.27
2018-10-18T05:41:16.765Z,103.37
2018-10-18T05:43:49.226Z,116.40
2018-10-18T05:46:21.675Z,112.23
2018-10-18T05:48:54.133Z,117.33
2018-10-18T05:51:26.513Z,117.13
2018-10-18T05:53:59.202Z,101.13
2018-10-18T05:56:31.384Z,108.50
2018-10-18T05:59:03.870Z,110.80
2018-10-18T06:01:36.289Z,115.23
2018-10-18T06:04:08.761Z,109.47
2018-10-18T06:06:41.206Z,102.93
2018-10-18T06:09:22.522Z,95.53
2018-10-18T06:11:54.942Z,114.87
2018-10-18T06:14:27.361Z,108.03
2018-10-18T06:16:59.793Z,103.10
2018-10-18T06:19:32.226Z,95.13
2018-10-18T06:22:04.754Z,100.00
2018-10-18T06:24:37.179Z,93.60
2018-10-18T06:27:09.634Z,87.53
2018-10-18T06:29:42.082Z,88.90
2018-10-18T06:32:14.530Z,88.57
2018-10-18T06:34:46.955Z,75.50
2018-10-18T06:37:19.564Z,81.90
2018-10-18T06:39:51.921Z,88.07
2018-10-18T06:42:24.362Z,85.70
2018-10-18T06:44:56.786Z,78.13
2018-10-18T06:47:29.307Z,84.23
2018-10-18T06:50:01.685Z,83.83
2018-10-18T06:52:34.131Z,89.47
2018-10-18T06:55:06.703Z,90.73
2018-10-18T06:57:39.074Z,91.50
2018-10-18T07:00:12.420Z,91.60
2018-10-18T07:02:44.851Z,97.17
2018-10-18T07:05:17.363Z,101.27
2018-10-18T07:07:49.818Z,99.63
2018-10-18T07:10:22.245Z,104.70
2018-10-18T07:12:54.713Z,100.03
2018-10-18T07:15:27.182Z,92.23
2018-10-18T07:17:59.651Z,107.07
2018-10-18T07:20:32.050Z,102.37
2018-10-18T07:23:05.066Z,98.67
2018-10-18T07:25:37.499Z,103.20
2018-10-18T07:28:09.934Z,90.90
2018-10-18T07:30:42.346Z,101.03
2018-10-18T07:33:14.792Z,99.93
2018-10-18T07:35:47.237Z,81.27
2018-10-18T07:38:19.665Z,80.83
2018-10-18T07:40:52.080Z,74.10
2018-10-18T07:43:24.513Z,62.40
2018-10-18T07:45:56.952Z,78.33
2018-10-18T07:48:29.381Z,74.40
2018-10-18T07:51:01.795Z,69.63
2018-10-18T07:53:34.222Z,73.77
2018-10-18T07:56:06.635Z,67.63
2018-10-18T07:58:39.076Z,68.60
2018-10-18T08:01:11.529Z,70.70
2018-10-18T08:03:43.953Z,71.80
2018-10-18T08:06:16.362Z,64.73
2018-10-18T08:08:48.801Z,63.97
2018-10-18T08:11:21.230Z,60.97
2018-10-18T08:13:53.678Z,62.00
2018-10-18T08:16:26.118Z,60.93
2018-10-18T08:18:58.579Z,59.50
2018-10-18T08:21:30.982Z,59.23
2018-10-18T08:24:03.457Z,57.50
2018-10-18T08:26:35.902Z,59.67
2018-10-18T08:29:08.463Z,57.43
2018-10-18T08:31:40.954Z,56.53
2018-10-18T08:34:13.282Z,45.23
2018-10-18T08:36:45.713Z,53.43
2018-10-18T08:39:18.169Z,53.37
2018-10-18T08:41:50.589Z,50.33
2018-10-18T08:44:23.126Z,50.27
2018-10-18T08:46:55.546Z,57.90
2018-10-18T08:49:28.040Z,61.53
2018-10-18T08:52:00.486Z,53.93
2018-10-18T08:54:32.910Z,56.80
2018-10-18T08:57:05.357Z,49.03
2018-10-18T08:59:37.799Z,50.57
2018-10-18T09:02:10.233Z,49.87
2018-10-18T09:04:42.783Z,51.90
2018-10-18T09:07:15.344Z,56.37
2018-10-18T09:09:47.699Z,56.03
2018-10-18T09:12:20.153Z,58.60
2018-10-18T09:14:52.582Z,62.67
2018-10-18T09:17:25.034Z,56.63
2018-10-18T09:19:57.482Z,57.87
2018-10-18T09:22:29.909Z,64.07
2018-10-18T09:25:02.379Z,67.30
2018-10-18T09:27:34.798Z,48.60
2018-10-18T09:30:08.491Z,57.03
2018-10-18T09:32:40.870Z,61.60
2018-10-18T09:35:13.276Z,60.53
2018-10-18T09:37:45.694Z,55.67
2018-10-18T09:40:18.104Z,52.17
2018-10-18T09:42:50.589Z,58.87
2018-10-18T09:45:23.039Z,56.97
2018-10-18T09:47:55.450Z,61.17
2018-10-18T09:50:27.851Z,45.30
2018-10-18T09:53:00.326Z,52.77
2018-10-18T09:55:32.776Z,54.53
2018-10-18T09:58:05.233Z,54.37
2018-10-18T10:00:37.707Z,51.67
2018-10-18T10:03:10.125Z,55.13
2018-10-18T10:05:42.522Z,55.30
2018-10-18T10:08:15.887Z,61.07
2018-10-18T10:10:48.293Z,51.73
2018-10-18T10:13:20.755Z,55.80
2018-10-18T10:15:53.108Z,53.17
2018-10-18T10:18:25.515Z,50.03
2018-10-18T10:20:57.914Z,53.67
2018-10-18T10:23:30.643Z,49.33
2018-10-18T10:26:03.065Z,50.13
2018-10-18T10:28:35.502Z,50.77
2018-10-18T10:31:07.947Z,48.90
2018-10-18T10:33:40.363Z,45.73
2018-10-18T10:36:12.777Z,54.23
2018-10-18T10:38:45.251Z,48.90
2018-10-18T10:41:17.732Z,47.63
2018-10-18T10:43:50.118Z,45.40
2018-10-18T10:46:22.565Z,44.13
2018-10-18T10:48:54.990Z,48.47
2018-10-18T10:51:27.439Z,41.33
2018-10-18T10:53:59.908Z,47.77
2018-10-18T10:56:32.282Z,46.17
2018-10-18T10:59:11.601Z,38.97
2018-10-18T11:01:44.010Z,38.77
2018-10-18T11:04:16.453Z,42.60
2018-10-18T11:06:48.878Z,39.40
2018-10-18T11:09:21.436Z,38.23
2018-10-18T11:11:53.869Z,41.90
2018-10-18T11:14:26.675Z,40.07
2018-10-18T11:16:59.099Z,39.07
2018-10-18T11:19:31.552Z,38.73
2018-10-18T11:22:04.826Z,44.33
2018-10-18T11:24:38.193Z,37.93
2018-10-18T11:27:10.549Z,38.53
2018-10-18T11:29:42.925Z,41.60
2018-10-18T11:32:15.369Z,35.77
2018-10-18T11:34:47.782Z,39.67
2018-10-18T11:37:20.201Z,36.60
2018-10-18T11:39:52.645Z,40.87
2018-10-18T11:42:25.119Z,38.67
2018-10-18T11:44:57.517Z,38.10
2018-10-18T11:47:29.973Z,36.40
2018-10-18T11:50:02.458Z,39.53
2018-10-18T11:52:34.813Z,36.20
2018-10-18T11:55:07.454Z,34.00
2018-10-18T11:57:40.285Z,38.10
2018-10-18T12:00:12.725Z,39.70
2018-10-18T12:02:45.446Z,31.23
2018-10-18T12:05:18.003Z,41.70
2018-10-18T12:07:50.268Z,40.30
2018-10-18T12:10:22.701Z,36.43
2018-10-18T12:12:55.141Z,31.17
2018-10-18T12:15:27.585Z,30.40
2018-10-18T12:17:59.993Z,30.77
2018-10-18T12:20:32.426Z,24.93
2018-10-18T12:23:04.877Z,30.10
2018-10-18T12:25:37.306Z,26.90
2018-10-18T12:28:09.748Z,27.93
2018-10-18T12:30:42.174Z,24.37
2018-10-18T12:33:14.867Z,19.60
2018-10-18T12:35:47.296Z,25.97
2018-10-18T12:38:19.925Z,19.00
2018-10-18T12:40:52.451Z,26.97
2018-10-18T12:43:24.781Z,30.13
2018-10-18T12:45:57.215Z,22.90
2018-10-18T12:48:29.648Z,24.30
2018-10-18T12:51:02.080Z,22.97
2018-10-18T12:53:34.531Z,17.03
2018-10-18T12:56:07.041Z,26.57
2018-10-18T12:58:39.373Z,22.80
2018-10-18T13:01:11.795Z,23.67
2018-10-18T13:03:44.218Z,22.50
2018-10-18T13:06:16.738Z,22.87
2018-10-18T13:08:49.101Z,28.80
2018-10-18T13:11:21.527Z,23.60
2018-10-18T13:13:54.006Z,19.03
2018-10-18T13:16:26.500Z,17.90
2018-10-18T13:18:58.865Z,17.03
2018-10-18T13:21:31.295Z,19.67
2018-10-18T13:24:03.761Z,14.43
2018-10-18T13:26:36.230Z,13.83
2018-10-18T13:29:08.652Z,13.57
2018-10-18T13:31:41.084Z,13.67
2018-10-18T13:34:13.646Z,11.50
2018-10-18T13:36:45.919Z,16.60
2018-10-18T13:39:18.421Z,10.70
2018-10-18T13:41:50.755Z,9.23
2018-10-18T13:44:23.226Z,20.63
2018-10-18T13:46:55.641Z,9.40
2018-10-18T13:49:28.055Z,11.60
2018-10-18T13:52:00.466Z,12.50
2018-10-18T13:54:32.871Z,9.43
2018-10-18T13:57:05.470Z,9.80
2018-10-18T13:59:49.399Z,14.00
2018-10-18T14:02:21.735Z,11.27
2018-10-18T14:04:54.081Z,12.30
2018-10-18T14:07:27.316Z,9.37
2018-10-18T14:09:59.718Z,11.23
2018-10-18T14:12:32.139Z,10.50
2018-10-18T14:15:05.599Z,13.23
2018-10-18T14:17:38.197Z,9.33
2018-10-18T14:20:10.504Z,10.07
2018-10-18T14:22:43.166Z,10.60
2018-10-18T14:25:15.606Z,9.80
2018-10-18T14:27:48.043Z,11.10
2018-10-18T14:30:20.562Z,11.80
2018-10-18T14:32:52.902Z,9.50
2018-10-18T14:35:25.373Z,9.47
2018-10-18T14:37:57.803Z,8.83
2018-10-18T14:40:30.202Z,7.57
2018-10-18T14:43:02.622Z,9.47
2018-10-18T14:45:35.045Z,8.73
2018-10-18T14:48:07.453Z,7.80
2018-10-18T14:50:39.970Z,8.17
2018-10-18T14:53:12.323Z,8.53
2018-10-18T14:55:44.734Z,6.73
2018-10-18T14:58:17.129Z,6.53
2018-10-18T15:00:49.878Z,6.50
2018-10-18T15:03:22.294Z,10.80
2018-10-18T15:05:54.742Z,8.67
2018-10-18T15:08:27.178Z,5.53
2018-10-18T15:10:59.646Z,9.40
2018-10-18T15:13:32.028Z,5.47
2018-10-18T15:16:04.981Z,5.87
2018-10-18T15:18:37.382Z,4.97
2018-10-18T15:21:09.802Z,5.80
2018-10-18T15:23:42.266Z,4.03
2018-10-18T15:26:14.756Z,5.20
2018-10-18T15:28:47.176Z,4.63
2018-10-18T15:31:19.594Z,4.77
2018-10-18T15:33:52.009Z,4.47
2018-10-18T15:36:24.433Z,3.47
2018-10-18T15:38:57.039Z,5.87
2018-10-18T15:41:29.277Z,4.37
2018-10-18T15:44:01.742Z,3.43
2018-10-18T15:46:34.204Z,8.30
2018-10-18T15:49:06.596Z,7.87
2018-10-18T15:51:39.018Z,5.20
2018-10-18T15:54:11.447Z,6.10
2018-10-18T15:56:43.958Z,7.33
2018-10-18T15:59:16.463Z,6.57
2018-10-18T16:01:48.822Z,8.43
2018-10-18T16:04:21.246Z,5.17
2018-10-18T16:06:53.677Z,5.47
2018-10-18T16:09:26.093Z,6.10
2018-10-18T16:11:58.527Z,5.20
2018-10-18T16:14:30.956Z,6.93
2018-10-18T16:17:03.456Z,8.63
2018-10-18T16:19:35.834Z,5.67
2018-10-18T16:22:08.281Z,9.80
2018-10-18T16:24:40.718Z,5.70
2018-10-18T16:27:13.216Z,6.70
2018-10-18T16:29:45.623Z,5.60
2018-10-18T16:32:18.192Z,7.17
2018-10-18T16:34:50.449Z,5.70
2018-10-18T16:37:23.158Z,6.63
2018-10-18T16:39:55.837Z,7.80
2018-10-18T16:42:28.249Z,6.47
2018-10-18T16:45:00.989Z,8.10
2018-10-18T16:47:33.483Z,7.40
2018-10-18T16:50:06.271Z,5.77
2018-10-18T16:52:38.673Z,5.37
2018-10-18T16:55:11.078Z,8.30
2018-10-18T16:57:43.526Z,6.80
2018-10-18T17:00:16.042Z,7.37
2018-10-18T17:02:48.354Z,7.77
2018-10-18T17:05:20.767Z,8.97
2018-10-18T17:07:53.306Z,8.90
2018-10-18T17:10:25.679Z,8.23
2018-10-18T17:12:58.108Z,6.87
2018-10-18T17:15:30.509Z,7.90
2018-10-18T17:18:03.272Z,8.00
2018-10-18T17:20:35.617Z,9.00
2018-10-18T17:23:08.030Z,8.30
2018-10-18T17:25:40.450Z,10.17
2018-10-18T17:28:12.870Z,6.80
2018-10-18T17:30:45.286Z,9.67
2018-10-18T17:33:17.717Z,5.27
2018-10-18T17:35:50.134Z,5.03
2018-10-18T17:38:22.594Z,7.10
2018-10-18T17:40:55.044Z,5.27
2018-10-18T17:43:27.481Z,4.90
2018-10-18T17:45:59.923Z,6.87
2018-10-18T17:48:32.325Z,7.23
2018-10-18T17:51:04.754Z,5.73
2018-10-18T17:53:37.193Z,9.20
2018-10-18T17:56:09.828Z,6.50
2018-10-18T17:58:42.259Z,5.63
2018-10-18T18:01:14.670Z,5.10
2018-10-18T18:03:47.105Z,6.03
2018-10-18T18:06:19.724Z,8.10
2018-10-18T18:08:51.970Z,7.80
2018-10-18T18:11:24.419Z,17.17
2018-10-18T18:13:56.851Z,6.97
2018-10-18T18:16:29.274Z,7.77
2018-10-18T18:19:01.701Z,7.70
2018-10-18T18:21:34.125Z,10.27
2018-10-18T18:24:06.577Z,7.80
2018-10-18T18:26:45.265Z,10.30
2018-10-18T18:29:11.450Z,7.97
2018-10-18T18:31:43.871Z,7.30
2018-10-18T18:34:16.294Z,8.97
2018-10-18T18:36:48.719Z,10.70
2018-10-18T18:39:21.147Z,9.90
2018-10-18T18:41:53.570Z,10.37
2018-10-18T18:44:26.037Z,10.73
2018-10-18T18:46:58.438Z,11.03
2018-10-18T18:49:30.873Z,11.33
2018-10-18T18:52:03.446Z,12.90
2018-10-18T18:54:35.860Z,14.20
2018-10-18T18:57:08.364Z,13.43
2018-10-18T18:59:40.718Z,12.03
2018-10-18T19:02:13.164Z,14.10
2018-10-18T19:04:45.591Z,13.50
2018-10-18T19:07:18.285Z,12.73
2018-10-18T19:09:50.726Z,18.87
2018-10-18T19:12:23.150Z,19.23
2018-10-18T19:14:55.637Z,19.67
2018-10-18T19:17:28.022Z,19.27
2018-10-18T19:20:00.496Z,16.87
2018-10-18T19:22:32.926Z,19.27
2018-10-18T19:25:06.111Z,19.20
2018-10-18T19:27:38.526Z,22.23
2018-10-18T19:30:10.951Z,22.47
2018-10-18T19:32:43.352Z,24.20
2018-10-18T19:35:15.769Z,22.13
2018-10-18T19:37:48.468Z,24.33
2018-10-18T19:40:20.877Z,25.33
2018-10-18T19:42:53.281Z,26.60
2018-10-18T19:45:25.695Z,27.37
2018-10-18T19:47:58.100Z,26.80
2018-10-18T19:50:30.527Z,24.93
2018-10-18T19:53:03.003Z,26.60
2018-10-18T19:55:35.405Z,26.80
2018-10-18T19:58:08.309Z,26.27
2018-10-18T20:00:40.682Z,27.47
